sensor_id;sensor_type;location;lat;lon;timestamp;temperature;humidity
8253;DHT22;61313;48.396;10.008;2022-11-04T00:01:58;10.90;1.00
8253;DHT22;61313;48.396;10.008;2022-11-04T00:04:26;10.90;1.00
8253;DHT22;61313;48.396;10.008;2022-11-04T00:06:52;10.90;1.00
8253;DHT22;61313;48.396;10.008;2022-11-04T00:09:24;10.90;1.00
8253;DHT22;61313;48.396;10.008;2022-11-04T00:11:51;11.00;1.00
8253;DHT22;61313;48.396;10.008;2022-11-04T00:14:35;11.00;1.00
8253;DHT22;61313;48.396;10.008;2022-11-04T00:17:04;10.90;1.00
8253;DHT22;61313;48.396;10.008;2022-11-04T00:19:48;10.90;1.00
8253;DHT22;61313;48.396;10.008;2022-11-04T00:22:33;10.90;1.00
8253;DHT22;61313;48.396;10.008;2022-11-04T00:25:17;10.90;1.00
8253;DHT22;61313;48.396;10.008;2022-11-04T00:28:09;11.00;1.00
8253;DHT22;61313;48.396;10.008;2022-11-04T00:30:55;11.00;1.00
8253;DHT22;61313;48.396;10.008;2022-11-04T00:33:22;11.00;1.00
8253;DHT22;61313;48.396;10.008;2022-11-04T00:35:52;11.10;1.00
8253;DHT22;61313;48.396;10.008;2022-11-04T00:38:18;11.10;1.00
8253;DHT22;61313;48.396;10.008;2022-11-04T00:40:44;11.10;1.00
8253;DHT22;61313;48.396;10.008;2022-11-04T00:43:10;11.10;1.00
8253;DHT22;61313;48.396;10.008;2022-11-04T00:45:36;11.10;1.00
8253;DHT22;61313;48.396;10.008;2022-11-04T00:48:01;11.10;1.00
8253;DHT22;61313;48.396;10.008;2022-11-04T00:50:27;11.10;1.00
8253;DHT22;61313;48.396;10.008;2022-11-04T00:53:03;11.10;1.00
8253;DHT22;61313;48.396;10.008;2022-11-04T00:55:29;11.10;1.00
8253;DHT22;61313;48.396;10.008;2022-11-04T00:57:55;11.10;1.00
8253;DHT22;61313;48.396;10.008;2022-11-04T01:00:22;11.00;1.00
8253;DHT22;61313;48.396;10.008;2022-11-04T01:02:47;11.00;1.00
8253;DHT22;61313;48.396;10.008;2022-11-04T01:05:13;11.00;1.00
8253;DHT22;61313;48.396;10.008;2022-11-04T01:07:39;11.00;1.00
8253;DHT22;61313;48.396;10.008;2022-11-04T01:10:05;11.00;1.00
8253;DHT22;61313;48.396;10.008;2022-11-04T01:12:31;11.00;1.00
8253;DHT22;61313;48.396;10.008;2022-11-04T01:14:56;11.00;1.00
8253;DHT22;61313;48.396;10.008;2022-11-04T01:17:22;11.00;1.00
8253;DHT22;61313;48.396;10.008;2022-11-04T01:19:48;11.00;1.00
8253;DHT22;61313;48.396;10.008;2022-11-04T01:22:13;11.00;1.00
8253;DHT22;61313;48.396;10.008;2022-11-04T01:24:39;11.10;1.00
8253;DHT22;61313;48.396;10.008;2022-11-04T01:27:05;11.00;1.00
8253;DHT22;61313;48.396;10.008;2022-11-04T01:29:30;11.00;1.00
8253;DHT22;61313;48.396;10.008;2022-11-04T01:31:56;11.00;1.00
8253;DHT22;61313;48.396;10.008;2022-11-04T01:34:22;11.00;1.00
8253;DHT22;61313;48.396;10.008;2022-11-04T01:36:47;11.10;1.00
8253;DHT22;61313;48.396;10.008;2022-11-04T01:39:13;11.10;1.00
8253;DHT22;61313;48.396;10.008;2022-11-04T01:41:39;11.00;1.00
8253;DHT22;61313;48.396;10.008;2022-11-04T01:47:19;11.00;1.00
8253;DHT22;61313;48.396;10.008;2022-11-04T01:50:03;11.00;1.00
8253;DHT22;61313;48.396;10.008;2022-11-04T01:55:19;11.00;1.00
8253;DHT22;61313;48.396;10.008;2022-11-04T01:57:48;11.00;1.00
8253;DHT22;61313;48.396;10.008;2022-11-04T02:00:14;10.90;1.00
8253;DHT22;61313;48.396;10.008;2022-11-04T02:05:16;10.80;1.00
8253;DHT22;61313;48.396;10.008;2022-11-04T02:07:43;10.80;1.00
8253;DHT22;61313;48.396;10.008;2022-11-04T02:10:09;10.80;1.00
8253;DHT22;61313;48.396;10.008;2022-11-04T02:12:35;10.90;1.00
8253;DHT22;61313;48.396;10.008;2022-11-04T02:34:32;10.90;1.00
8253;DHT22;61313;48.396;10.008;2022-11-04T02:37:27;10.90;1.00
8253;DHT22;61313;48.396;10.008;2022-11-04T02:40:22;10.90;1.00
8253;DHT22;61313;48.396;10.008;2022-11-04T02:43:27;10.90;1.00
8253;DHT22;61313;48.396;10.008;2022-11-04T02:48:59;10.90;1.00
8253;DHT22;61313;48.396;10.008;2022-11-04T02:52:13;10.90;1.00
8253;DHT22;61313;48.396;10.008;2022-11-04T02:54:24;10.90;1.00
8253;DHT22;61313;48.396;10.008;2022-11-04T02:56:54;10.90;1.00
8253;DHT22;61313;48.396;10.008;2022-11-04T02:59:29;10.90;1.00
8253;DHT22;61313;48.396;10.008;2022-11-04T03:01:58;10.90;1.00
8253;DHT22;61313;48.396;10.008;2022-11-04T03:04:33;10.90;1.00
8253;DHT22;61313;48.396;10.008;2022-11-04T03:07:01;10.90;1.00
8253;DHT22;61313;48.396;10.008;2022-11-04T03:09:28;10.90;1.00
8253;DHT22;61313;48.396;10.008;2022-11-04T03:12:00;10.90;1.00
8253;DHT22;61313;48.396;10.008;2022-11-04T03:14:45;11.00;1.00
8253;DHT22;61313;48.396;10.008;2022-11-04T03:20:09;11.00;1.00
8253;DHT22;61313;48.396;10.008;2022-11-04T03:22:37;10.90;1.00
8253;DHT22;61313;48.396;10.008;2022-11-04T03:25:05;11.00;1.00
8253;DHT22;61313;48.396;10.008;2022-11-04T03:27:47;10.90;1.00
8253;DHT22;61313;48.396;10.008;2022-11-04T03:30:19;10.90;1.00
8253;DHT22;61313;48.396;10.008;2022-11-04T03:35:32;10.90;1.00
8253;DHT22;61313;48.396;10.008;2022-11-04T03:37:58;10.90;1.00
8253;DHT22;61313;48.396;10.008;2022-11-04T03:40:24;10.90;1.00
8253;DHT22;61313;48.396;10.008;2022-11-04T03:43:13;10.90;1.00
8253;DHT22;61313;48.396;10.008;2022-11-04T03:45:40;10.80;1.00
8253;DHT22;61313;48.396;10.008;2022-11-04T03:48:07;10.90;1.00
8253;DHT22;61313;48.396;10.008;2022-11-04T03:50:39;11.00;1.00
8253;DHT22;61313;48.396;10.008;2022-11-04T03:53:06;11.00;1.00
8253;DHT22;61313;48.396;10.008;2022-11-04T03:55:42;11.00;1.00
8253;DHT22;61313;48.396;10.008;2022-11-04T03:58:39;11.00;1.00
8253;DHT22;61313;48.396;10.008;2022-11-04T04:01:36;10.90;1.00
8253;DHT22;61313;48.396;10.008;2022-11-04T04:04:19;10.80;1.00
8253;DHT22;61313;48.396;10.008;2022-11-04T04:06:49;10.80;1.00
8253;DHT22;61313;48.396;10.008;2022-11-04T04:12:09;10.70;1.00
8253;DHT22;61313;48.396;10.008;2022-11-04T04:14:50;10.80;1.00
8253;DHT22;61313;48.396;10.008;2022-11-04T04:17:52;10.80;1.00
8253;DHT22;61313;48.396;10.008;2022-11-04T04:20:22;10.80;99.90
8253;DHT22;61313;48.396;10.008;2022-11-04T04:23:03;10.80;99.90
8253;DHT22;61313;48.396;10.008;2022-11-04T04:25:51;10.80;99.90
8253;DHT22;61313;48.396;10.008;2022-11-04T04:28:36;10.80;1.00
8253;DHT22;61313;48.396;10.008;2022-11-04T04:31:03;10.80;1.00
8253;DHT22;61313;48.396;10.008;2022-11-04T04:33:29;10.80;1.00
8253;DHT22;61313;48.396;10.008;2022-11-04T04:35:56;10.80;1.00
8253;DHT22;61313;48.396;10.008;2022-11-04T04:38:23;10.70;1.00
8253;DHT22;61313;48.396;10.008;2022-11-04T04:44:02;10.80;1.00
8253;DHT22;61313;48.396;10.008;2022-11-04T04:46:49;10.80;1.00
8253;DHT22;61313;48.396;10.008;2022-11-04T04:49:16;10.90;1.00
8253;DHT22;61313;48.396;10.008;2022-11-04T04:51:44;10.90;1.00
8253;DHT22;61313;48.396;10.008;2022-11-04T04:54:11;10.90;1.00
8253;DHT22;61313;48.396;10.008;2022-11-04T04:56:37;10.90;1.00
8253;DHT22;61313;48.396;10.008;2022-11-04T04:59:03;10.90;1.00
8253;DHT22;61313;48.396;10.008;2022-11-04T05:01:29;10.90;99.90
8253;DHT22;61313;48.396;10.008;2022-11-04T05:03:55;10.90;99.90
8253;DHT22;61313;48.396;10.008;2022-11-04T05:06:20;10.90;99.90
8253;DHT22;61313;48.396;10.008;2022-11-04T05:08:46;10.90;1.00
8253;DHT22;61313;48.396;10.008;2022-11-04T05:11:12;10.80;1.00
8253;DHT22;61313;48.396;10.008;2022-11-04T05:13:39;10.70;1.00
8253;DHT22;61313;48.396;10.008;2022-11-04T05:16:10;10.70;1.00
8253;DHT22;61313;48.396;10.008;2022-11-04T05:18:36;10.70;1.00
8253;DHT22;61313;48.396;10.008;2022-11-04T05:21:07;10.70;1.00
8253;DHT22;61313;48.396;10.008;2022-11-04T05:23:34;10.70;1.00
8253;DHT22;61313;48.396;10.008;2022-11-04T05:25:59;10.60;1.00
8253;DHT22;61313;48.396;10.008;2022-11-04T05:28:25;10.60;1.00
8253;DHT22;61313;48.396;10.008;2022-11-04T05:30:51;10.60;1.00
8253;DHT22;61313;48.396;10.008;2022-11-04T05:33:17;10.60;1.00
8253;DHT22;61313;48.396;10.008;2022-11-04T05:35:42;10.60;1.00
8253;DHT22;61313;48.396;10.008;2022-11-04T05:38:08;10.60;1.00
8253;DHT22;61313;48.396;10.008;2022-11-04T05:40:34;10.60;1.00
8253;DHT22;61313;48.396;10.008;2022-11-04T05:43:00;10.60;1.00
8253;DHT22;61313;48.396;10.008;2022-11-04T05:45:26;10.50;1.00
8253;DHT22;61313;48.396;10.008;2022-11-04T05:48:04;10.50;1.00
8253;DHT22;61313;48.396;10.008;2022-11-04T05:50:31;10.50;1.00
8253;DHT22;61313;48.396;10.008;2022-11-04T05:52:58;10.50;1.00
8253;DHT22;61313;48.396;10.008;2022-11-04T05:55:24;10.50;1.00
8253;DHT22;61313;48.396;10.008;2022-11-04T05:57:50;10.50;1.00
8253;DHT22;61313;48.396;10.008;2022-11-04T06:00:16;10.50;1.00
8253;DHT22;61313;48.396;10.008;2022-11-04T06:02:42;10.40;1.00
8253;DHT22;61313;48.396;10.008;2022-11-04T06:05:08;10.40;1.00
8253;DHT22;61313;48.396;10.008;2022-11-04T06:07:34;10.40;1.00
8253;DHT22;61313;48.396;10.008;2022-11-04T06:09:59;10.30;1.00
8253;DHT22;61313;48.396;10.008;2022-11-04T06:12:25;10.40;1.00
8253;DHT22;61313;48.396;10.008;2022-11-04T06:14:51;10.40;1.00
8253;DHT22;61313;48.396;10.008;2022-11-04T06:17:19;10.50;1.00
8253;DHT22;61313;48.396;10.008;2022-11-04T06:19:45;10.50;1.00
8253;DHT22;61313;48.396;10.008;2022-11-04T06:22:12;10.50;1.00
8253;DHT22;61313;48.396;10.008;2022-11-04T06:24:39;10.50;1.00
8253;DHT22;61313;48.396;10.008;2022-11-04T06:27:04;10.50;1.00
8253;DHT22;61313;48.396;10.008;2022-11-04T06:29:30;10.50;1.00
8253;DHT22;61313;48.396;10.008;2022-11-04T06:31:56;10.50;1.00
8253;DHT22;61313;48.396;10.008;2022-11-04T06:34:22;10.50;1.00
8253;DHT22;61313;48.396;10.008;2022-11-04T06:36:48;10.50;1.00
8253;DHT22;61313;48.396;10.008;2022-11-04T06:39:14;10.50;1.00
8253;DHT22;61313;48.396;10.008;2022-11-04T06:41:40;10.50;1.00
8253;DHT22;61313;48.396;10.008;2022-11-04T06:44:06;10.50;1.00
8253;DHT22;61313;48.396;10.008;2022-11-04T06:46:38;10.60;1.00
8253;DHT22;61313;48.396;10.008;2022-11-04T06:49:06;10.50;1.00
8253;DHT22;61313;48.396;10.008;2022-11-04T06:51:32;10.40;1.00
8253;DHT22;61313;48.396;10.008;2022-11-04T06:53:58;10.40;1.00
8253;DHT22;61313;48.396;10.008;2022-11-04T06:56:24;10.50;1.00
8253;DHT22;61313;48.396;10.008;2022-11-04T06:58:51;10.50;1.00
8253;DHT22;61313;48.396;10.008;2022-11-04T07:01:18;10.50;1.00
8253;DHT22;61313;48.396;10.008;2022-11-04T07:03:48;10.60;1.00
8253;DHT22;61313;48.396;10.008;2022-11-04T07:06:14;10.60;1.00
8253;DHT22;61313;48.396;10.008;2022-11-04T07:08:40;10.60;1.00
8253;DHT22;61313;48.396;10.008;2022-11-04T07:11:06;10.70;1.00
8253;DHT22;61313;48.396;10.008;2022-11-04T07:13:32;10.60;1.00
8253;DHT22;61313;48.396;10.008;2022-11-04T07:15:58;10.60;1.00
8253;DHT22;61313;48.396;10.008;2022-11-04T07:18:24;10.60;1.00
8253;DHT22;61313;48.396;10.008;2022-11-04T07:20:50;10.50;1.00
8253;DHT22;61313;48.396;10.008;2022-11-04T07:23:16;10.40;1.00
8253;DHT22;61313;48.396;10.008;2022-11-04T07:25:42;10.50;1.00
8253;DHT22;61313;48.396;10.008;2022-11-04T07:28:08;10.50;1.00
8253;DHT22;61313;48.396;10.008;2022-11-04T07:30:34;10.50;1.00
8253;DHT22;61313;48.396;10.008;2022-11-04T07:32:59;10.50;1.00
8253;DHT22;61313;48.396;10.008;2022-11-04T07:35:25;10.50;1.00
8253;DHT22;61313;48.396;10.008;2022-11-04T07:37:51;10.60;1.00
8253;DHT22;61313;48.396;10.008;2022-11-04T07:40:16;10.60;1.00
8253;DHT22;61313;48.396;10.008;2022-11-04T07:42:42;10.60;1.00
8253;DHT22;61313;48.396;10.008;2022-11-04T07:45:08;10.60;1.00
8253;DHT22;61313;48.396;10.008;2022-11-04T07:47:34;10.70;1.00
8253;DHT22;61313;48.396;10.008;2022-11-04T07:49:59;10.60;1.00
8253;DHT22;61313;48.396;10.008;2022-11-04T07:52:25;10.60;1.00
8253;DHT22;61313;48.396;10.008;2022-11-04T07:54:51;10.60;1.00
8253;DHT22;61313;48.396;10.008;2022-11-04T07:57:17;10.60;1.00
8253;DHT22;61313;48.396;10.008;2022-11-04T07:59:42;10.60;1.00
8253;DHT22;61313;48.396;10.008;2022-11-04T08:02:09;10.70;1.00
8253;DHT22;61313;48.396;10.008;2022-11-04T08:04:35;10.70;1.00
8253;DHT22;61313;48.396;10.008;2022-11-04T08:07:01;10.60;1.00
8253;DHT22;61313;48.396;10.008;2022-11-04T08:09:27;10.60;1.00
8253;DHT22;61313;48.396;10.008;2022-11-04T08:11:53;10.60;1.00
8253;DHT22;61313;48.396;10.008;2022-11-04T08:14:19;10.60;1.00
8253;DHT22;61313;48.396;10.008;2022-11-04T08:16:44;10.60;1.00
8253;DHT22;61313;48.396;10.008;2022-11-04T08:19:10;10.60;1.00
8253;DHT22;61313;48.396;10.008;2022-11-04T08:21:36;10.60;1.00
8253;DHT22;61313;48.396;10.008;2022-11-04T08:24:02;10.60;1.00
8253;DHT22;61313;48.396;10.008;2022-11-04T08:26:29;10.60;1.00
8253;DHT22;61313;48.396;10.008;2022-11-04T08:28:54;10.60;1.00
8253;DHT22;61313;48.396;10.008;2022-11-04T08:31:30;10.70;1.00
8253;DHT22;61313;48.396;10.008;2022-11-04T08:33:56;10.70;1.00
8253;DHT22;61313;48.396;10.008;2022-11-04T08:36:31;10.70;1.00
8253;DHT22;61313;48.396;10.008;2022-11-04T08:38:57;10.70;1.00
8253;DHT22;61313;48.396;10.008;2022-11-04T08:41:26;10.80;1.00
8253;DHT22;61313;48.396;10.008;2022-11-04T08:43:55;10.80;1.00
8253;DHT22;61313;48.396;10.008;2022-11-04T08:46:21;10.90;1.00
8253;DHT22;61313;48.396;10.008;2022-11-04T08:48:47;10.80;99.90
8253;DHT22;61313;48.396;10.008;2022-11-04T08:51:18;10.70;1.00
8253;DHT22;61313;48.396;10.008;2022-11-04T08:53:44;10.60;1.00
8253;DHT22;61313;48.396;10.008;2022-11-04T08:56:22;10.70;1.00
8253;DHT22;61313;48.396;10.008;2022-11-04T08:58:48;10.70;1.00
8253;DHT22;61313;48.396;10.008;2022-11-04T09:01:15;10.70;1.00
8253;DHT22;61313;48.396;10.008;2022-11-04T09:03:41;10.60;1.00
8253;DHT22;61313;48.396;10.008;2022-11-04T09:06:14;10.60;1.00
8253;DHT22;61313;48.396;10.008;2022-11-04T09:08:40;10.70;1.00
8253;DHT22;61313;48.396;10.008;2022-11-04T09:11:09;10.70;1.00
8253;DHT22;61313;48.396;10.008;2022-11-04T09:13:36;10.80;1.00
8253;DHT22;61313;48.396;10.008;2022-11-04T09:16:02;10.90;99.90
8253;DHT22;61313;48.396;10.008;2022-11-04T09:18:29;11.00;99.90
8253;DHT22;61313;48.396;10.008;2022-11-04T09:20:54;11.00;99.90
8253;DHT22;61313;48.396;10.008;2022-11-04T09:23:20;11.00;99.90
8253;DHT22;61313;48.396;10.008;2022-11-04T09:25:46;11.00;99.90
8253;DHT22;61313;48.396;10.008;2022-11-04T09:28:11;11.00;99.90
8253;DHT22;61313;48.396;10.008;2022-11-04T09:30:37;11.00;99.90
8253;DHT22;61313;48.396;10.008;2022-11-04T09:33:03;11.00;99.90
8253;DHT22;61313;48.396;10.008;2022-11-04T09:35:29;11.00;99.90
8253;DHT22;61313;48.396;10.008;2022-11-04T09:37:55;11.00;99.90
8253;DHT22;61313;48.396;10.008;2022-11-04T09:40:23;11.20;99.90
8253;DHT22;61313;48.396;10.008;2022-11-04T09:43:05;11.20;92.50
8253;DHT22;61313;48.396;10.008;2022-11-04T09:45:39;11.30;51.90
8253;DHT22;61313;48.396;10.008;2022-11-04T09:48:07;11.30;91.60
8253;DHT22;61313;48.396;10.008;2022-11-04T09:50:47;11.40;1.00
8253;DHT22;61313;48.396;10.008;2022-11-04T09:53:17;11.40;1.00
8253;DHT22;61313;48.396;10.008;2022-11-04T09:55:51;11.20;1.00
8253;DHT22;61313;48.396;10.008;2022-11-04T09:58:19;11.30;1.00
8253;DHT22;61313;48.396;10.008;2022-11-04T10:01:36;11.30;1.00
8253;DHT22;61313;48.396;10.008;2022-11-04T10:03:58;11.40;1.00
8253;DHT22;61313;48.396;10.008;2022-11-04T10:09:33;11.40;1.00
8253;DHT22;61313;48.396;10.008;2022-11-04T10:12:18;11.40;1.00
8253;DHT22;61313;48.396;10.008;2022-11-04T10:28:19;11.40;1.00
8253;DHT22;61313;48.396;10.008;2022-11-04T10:30:47;11.40;1.00
8253;DHT22;61313;48.396;10.008;2022-11-04T10:33:23;11.40;1.00
8253;DHT22;61313;48.396;10.008;2022-11-04T10:35:54;11.40;99.90
8253;DHT22;61313;48.396;10.008;2022-11-04T10:38:35;11.40;1.00
8253;DHT22;61313;48.396;10.008;2022-11-04T10:41:01;11.50;1.00
8253;DHT22;61313;48.396;10.008;2022-11-04T10:43:30;11.50;99.90
8253;DHT22;61313;48.396;10.008;2022-11-04T10:48:37;11.40;99.90
8253;DHT22;61313;48.396;10.008;2022-11-04T10:51:05;11.60;1.00
8253;DHT22;61313;48.396;10.008;2022-11-04T10:53:32;11.60;1.00
8253;DHT22;61313;48.396;10.008;2022-11-04T10:56:39;11.60;1.00
8253;DHT22;61313;48.396;10.008;2022-11-04T10:59:28;11.70;99.90
8253;DHT22;61313;48.396;10.008;2022-11-04T11:01:57;11.70;99.90
8253;DHT22;61313;48.396;10.008;2022-11-04T11:04:34;11.70;1.00
8253;DHT22;61313;48.396;10.008;2022-11-04T11:07:05;11.80;5.60
8253;DHT22;61313;48.396;10.008;2022-11-04T11:12:16;11.90;1.00
8253;DHT22;61313;48.396;10.008;2022-11-04T11:14:43;11.90;1.00
8253;DHT22;61313;48.396;10.008;2022-11-04T11:20:01;11.90;99.90
8253;DHT22;61313;48.396;10.008;2022-11-04T11:22:35;12.00;55.80
8253;DHT22;61313;48.396;10.008;2022-11-04T11:25:29;12.10;1.00
8253;DHT22;61313;48.396;10.008;2022-11-04T11:33:02;12.20;1.00
8253;DHT22;61313;48.396;10.008;2022-11-04T11:35:36;12.30;1.00
8253;DHT22;61313;48.396;10.008;2022-11-04T11:40:44;12.40;1.00
8253;DHT22;61313;48.396;10.008;2022-11-04T11:43:28;12.40;99.90
8253;DHT22;61313;48.396;10.008;2022-11-04T11:45:55;12.40;99.90
8253;DHT22;61313;48.396;10.008;2022-11-04T11:48:39;12.50;99.90
8253;DHT22;61313;48.396;10.008;2022-11-04T11:51:05;12.60;99.90
8253;DHT22;61313;48.396;10.008;2022-11-04T11:53:31;12.60;99.90
8253;DHT22;61313;48.396;10.008;2022-11-04T11:58:50;12.50;99.90
8253;DHT22;61313;48.396;10.008;2022-11-04T12:03:55;12.60;99.90
8253;DHT22;61313;48.396;10.008;2022-11-04T12:11:26;12.50;99.60
8253;DHT22;61313;48.396;10.008;2022-11-04T12:14:01;12.40;94.70
8253;DHT22;61313;48.396;10.008;2022-11-04T12:19:20;12.50;92.20
8253;DHT22;61313;48.396;10.008;2022-11-04T12:22:09;12.50;17.60
8253;DHT22;61313;48.396;10.008;2022-11-04T12:24:40;12.60;15.80
8253;DHT22;61313;48.396;10.008;2022-11-04T12:30:11;12.50;1.00
8253;DHT22;61313;48.396;10.008;2022-11-04T12:32:40;12.50;1.00
8253;DHT22;61313;48.396;10.008;2022-11-04T12:46:29;12.60;1.00
8253;DHT22;61313;48.396;10.008;2022-11-04T13:10:52;12.60;1.00
8253;DHT22;61313;48.396;10.008;2022-11-04T13:13:33;12.50;1.00
8253;DHT22;61313;48.396;10.008;2022-11-04T13:16:05;12.50;1.00
8253;DHT22;61313;48.396;10.008;2022-11-04T13:18:36;12.50;1.00
8253;DHT22;61313;48.396;10.008;2022-11-04T13:21:10;12.50;1.00
8253;DHT22;61313;48.396;10.008;2022-11-04T13:23:46;12.60;1.00
8253;DHT22;61313;48.396;10.008;2022-11-04T13:26:14;12.60;1.00
8253;DHT22;61313;48.396;10.008;2022-11-04T13:28:43;12.60;1.00
8253;DHT22;61313;48.396;10.008;2022-11-04T13:31:20;12.60;1.00
8253;DHT22;61313;48.396;10.008;2022-11-04T13:34:05;12.60;1.00
8253;DHT22;61313;48.396;10.008;2022-11-04T13:36:47;12.70;1.00
8253;DHT22;61313;48.396;10.008;2022-11-04T13:42:32;12.60;1.00
8253;DHT22;61313;48.396;10.008;2022-11-04T13:44:55;12.60;1.00
8253;DHT22;61313;48.396;10.008;2022-11-04T13:47:41;12.60;1.00
8253;DHT22;61313;48.396;10.008;2022-11-04T13:52:51;12.70;1.00
8253;DHT22;61313;48.396;10.008;2022-11-04T13:55:18;12.50;1.00
8253;DHT22;61313;48.396;10.008;2022-11-04T13:57:56;12.50;1.00
8253;DHT22;61313;48.396;10.008;2022-11-04T14:00:27;12.50;1.00
8253;DHT22;61313;48.396;10.008;2022-11-04T14:02:58;12.60;1.00
8253;DHT22;61313;48.396;10.008;2022-11-04T14:18:35;12.30;1.00
8253;DHT22;61313;48.396;10.008;2022-11-04T14:21:07;12.20;1.00
8253;DHT22;61313;48.396;10.008;2022-11-04T14:23:34;12.10;1.00
8253;DHT22;61313;48.396;10.008;2022-11-04T14:26:09;12.00;1.00
8253;DHT22;61313;48.396;10.008;2022-11-04T14:28:35;12.00;1.00
8253;DHT22;61313;48.396;10.008;2022-11-04T14:31:06;11.90;1.00
8253;DHT22;61313;48.396;10.008;2022-11-04T14:36:16;11.90;1.00
8253;DHT22;61313;48.396;10.008;2022-11-04T14:46:43;12.10;1.00
8253;DHT22;61313;48.396;10.008;2022-11-04T14:52:36;12.10;1.00
8253;DHT22;61313;48.396;10.008;2022-11-04T14:57:55;12.20;1.00
8253;DHT22;61313;48.396;10.008;2022-11-04T15:03:28;12.00;1.00
8253;DHT22;61313;48.396;10.008;2022-11-04T15:06:03;12.00;1.00
8253;DHT22;61313;48.396;10.008;2022-11-04T15:08:35;11.90;1.00
8253;DHT22;61313;48.396;10.008;2022-11-04T15:11:17;11.90;1.00
8253;DHT22;61313;48.396;10.008;2022-11-04T15:14:14;11.90;1.00
8253;DHT22;61313;48.396;10.008;2022-11-04T15:16:40;11.90;1.00
8253;DHT22;61313;48.396;10.008;2022-11-04T15:19:08;11.90;1.00
8253;DHT22;61313;48.396;10.008;2022-11-04T15:21:41;11.90;1.00
8253;DHT22;61313;48.396;10.008;2022-11-04T15:24:15;11.90;1.00
8253;DHT22;61313;48.396;10.008;2022-11-04T15:26:52;11.90;1.00
8253;DHT22;61313;48.396;10.008;2022-11-04T15:29:21;11.90;1.00
8253;DHT22;61313;48.396;10.008;2022-11-04T15:31:56;11.90;24.40
8253;DHT22;61313;48.396;10.008;2022-11-04T15:34:24;11.90;81.40
8253;DHT22;61313;48.396;10.008;2022-11-04T15:36:51;11.90;99.90
8253;DHT22;61313;48.396;10.008;2022-11-04T15:41:50;11.80;99.90
8253;DHT22;61313;48.396;10.008;2022-11-04T15:44:36;11.80;99.90
8253;DHT22;61313;48.396;10.008;2022-11-04T15:49:49;11.70;99.90
8253;DHT22;61313;48.396;10.008;2022-11-04T15:52:25;11.70;99.90
8253;DHT22;61313;48.396;10.008;2022-11-04T15:54:56;11.60;99.90
8253;DHT22;61313;48.396;10.008;2022-11-04T15:57:28;11.60;99.90
8253;DHT22;61313;48.396;10.008;2022-11-04T16:02:48;11.70;99.90
8253;DHT22;61313;48.396;10.008;2022-11-04T16:07:51;11.80;99.90
8253;DHT22;61313;48.396;10.008;2022-11-04T16:10:32;11.80;99.90
8253;DHT22;61313;48.396;10.008;2022-11-04T16:13:21;11.80;99.90
8253;DHT22;61313;48.396;10.008;2022-11-04T16:18:33;11.90;80.70
8253;DHT22;61313;48.396;10.008;2022-11-04T16:21:04;11.90;56.60
8253;DHT22;61313;48.396;10.008;2022-11-04T16:23:30;11.80;37.40
8253;DHT22;61313;48.396;10.008;2022-11-04T16:26:00;11.90;60.30
8253;DHT22;61313;48.396;10.008;2022-11-04T16:28:29;11.90;99.90
8253;DHT22;61313;48.396;10.008;2022-11-04T16:31:01;12.00;99.90
8253;DHT22;61313;48.396;10.008;2022-11-04T16:33:27;12.90;1.00
8253;DHT22;61313;48.396;10.008;2022-11-04T16:35:53;13.60;99.90
8253;DHT22;61313;48.396;10.008;2022-11-04T16:38:18;14.00;51.70
8253;DHT22;61313;48.396;10.008;2022-11-04T16:40:47;14.40;99.90
8253;DHT22;61313;48.396;10.008;2022-11-04T16:43:15;14.50;1.00
8253;DHT22;61313;48.396;10.008;2022-11-04T16:45:45;14.50;1.00
8253;DHT22;61313;48.396;10.008;2022-11-04T16:48:18;14.50;58.40
8253;DHT22;61313;48.396;10.008;2022-11-04T16:50:45;14.60;99.90
8253;DHT22;61313;48.396;10.008;2022-11-04T16:53:11;14.00;1.00
8253;DHT22;61313;48.396;10.008;2022-11-04T16:55:42;13.40;1.00
8253;DHT22;61313;48.396;10.008;2022-11-04T16:58:15;12.80;1.00
8253;DHT22;61313;48.396;10.008;2022-11-04T17:00:41;12.30;1.00
8253;DHT22;61313;48.396;10.008;2022-11-04T17:03:15;12.00;1.00
8253;DHT22;61313;48.396;10.008;2022-11-04T17:05:49;11.90;99.90
8253;DHT22;61313;48.396;10.008;2022-11-04T17:08:15;11.70;1.00
8253;DHT22;61313;48.396;10.008;2022-11-04T17:10:40;11.60;1.00
8253;DHT22;61313;48.396;10.008;2022-11-04T17:13:08;11.60;1.00
8253;DHT22;61313;48.396;10.008;2022-11-04T17:15:34;11.50;1.00
8253;DHT22;61313;48.396;10.008;2022-11-04T17:18:00;11.50;99.90
8253;DHT22;61313;48.396;10.008;2022-11-04T17:20:25;11.40;99.90
8253;DHT22;61313;48.396;10.008;2022-11-04T17:22:51;11.40;99.90
8253;DHT22;61313;48.396;10.008;2022-11-04T17:25:28;11.30;1.00
8253;DHT22;61313;48.396;10.008;2022-11-04T17:27:54;11.30;1.00
8253;DHT22;61313;48.396;10.008;2022-11-04T17:30:21;11.30;25.00
8253;DHT22;61313;48.396;10.008;2022-11-04T17:32:47;11.30;46.10
8253;DHT22;61313;48.396;10.008;2022-11-04T17:35:14;11.30;1.00
8253;DHT22;61313;48.396;10.008;2022-11-04T17:37:41;11.40;1.00
8253;DHT22;61313;48.396;10.008;2022-11-04T17:40:11;11.40;1.00
8253;DHT22;61313;48.396;10.008;2022-11-04T17:42:38;11.40;1.00
8253;DHT22;61313;48.396;10.008;2022-11-04T17:45:22;11.40;1.00
8253;DHT22;61313;48.396;10.008;2022-11-04T17:47:48;11.40;1.00
8253;DHT22;61313;48.396;10.008;2022-11-04T17:50:13;11.40;1.00
8253;DHT22;61313;48.396;10.008;2022-11-04T17:52:39;11.30;1.00
8253;DHT22;61313;48.396;10.008;2022-11-04T17:55:06;11.30;1.00
8253;DHT22;61313;48.396;10.008;2022-11-04T17:57:33;11.20;1.00
8253;DHT22;61313;48.396;10.008;2022-11-04T17:59:59;11.30;1.00
8253;DHT22;61313;48.396;10.008;2022-11-04T18:02:27;11.30;1.00
8253;DHT22;61313;48.396;10.008;2022-11-04T18:04:53;11.30;1.00
8253;DHT22;61313;48.396;10.008;2022-11-04T18:07:19;11.20;1.00
8253;DHT22;61313;48.396;10.008;2022-11-04T18:09:44;11.20;1.00
8253;DHT22;61313;48.396;10.008;2022-11-04T18:12:10;11.10;1.00
8253;DHT22;61313;48.396;10.008;2022-11-04T18:14:54;11.20;99.90
8253;DHT22;61313;48.396;10.008;2022-11-04T18:17:19;11.00;99.90
8253;DHT22;61313;48.396;10.008;2022-11-04T18:19:50;11.10;99.90
8253;DHT22;61313;48.396;10.008;2022-11-04T18:22:15;11.00;1.00
8253;DHT22;61313;48.396;10.008;2022-11-04T18:24:41;11.00;1.00
8253;DHT22;61313;48.396;10.008;2022-11-04T18:27:07;11.00;1.00
8253;DHT22;61313;48.396;10.008;2022-11-04T18:29:33;11.00;1.00
8253;DHT22;61313;48.396;10.008;2022-11-04T18:31:59;10.90;1.00
8253;DHT22;61313;48.396;10.008;2022-11-04T18:34:25;10.90;1.00
8253;DHT22;61313;48.396;10.008;2022-11-04T18:36:52;10.90;1.00
8253;DHT22;61313;48.396;10.008;2022-11-04T18:39:19;10.90;6.00
8253;DHT22;61313;48.396;10.008;2022-11-04T18:41:46;10.90;99.90
8253;DHT22;61313;48.396;10.008;2022-11-04T18:44:15;10.90;10.60
8253;DHT22;61313;48.396;10.008;2022-11-04T18:46:41;11.10;99.90
8253;DHT22;61313;48.396;10.008;2022-11-04T18:49:07;11.10;1.30
8253;DHT22;61313;48.396;10.008;2022-11-04T18:51:33;10.80;1.00
8253;DHT22;61313;48.396;10.008;2022-11-04T18:54:03;10.80;99.90
8253;DHT22;61313;48.396;10.008;2022-11-04T18:56:29;10.80;99.90
8253;DHT22;61313;48.396;10.008;2022-11-04T18:58:55;10.80;99.90